Time;durP1;ratioP1;P1;durP2;ratioP2;P2;SDS_P1;SDS_P2;PMS_P1;PMS_P2;Temp;Humidity;BMP_temperature;BMP_pressure;BME280_temperature;BME280_humidity;BME280_pressure;Samples;Min_cycle;Max_cycle;Signal;HPM_P1;HPM_P2
2022/10/17 00:02:24;;;;;;;1.05;0.50;;;;;;;;;;10482509;28;20389;-80
2022/10/17 00:07:27;;;;;;;1.38;0.70;;;;;;;;;;10481102;28;20086;-80
2022/10/17 00:12:31;;;;;;;2.50;0.80;;;;;;;;;;10484630;28;20040;-80
2022/10/17 00:17:37;;;;;;;1.92;1.00;;;;;;;;;;10486438;28;20052;-79
2022/10/17 00:22:40;;;;;;;1.80;1.02;;;;;;;;;;10481498;28;20045;-79
2022/10/17 00:27:44;;;;;;;1.95;0.85;;;;;;;;;;10484244;28;20044;-80
2022/10/17 00:32:51;;;;;;;3.45;1.17;;;;;;;;;;10492792;28;20049;-79
2022/10/17 00:37:54;;;;;;;1.30;0.90;;;;;;;;;;10483386;28;20040;-79
2022/10/17 00:42:58;;;;;;;2.22;1.20;;;;;;;;;;10480728;28;20048;-79
2022/10/17 00:48:07;;;;;;;1.50;0.93;;;;;;;;;;10498900;28;20044;-79
2022/10/17 00:53:11;;;;;;;1.80;0.85;;;;;;;;;;10495756;28;20044;-80
2022/10/17 00:58:15;;;;;;;1.13;0.65;;;;;;;;;;10488545;28;20047;-80
2022/10/17 01:03:20;;;;;;;1.17;0.70;;;;;;;;;;10489166;28;20059;-79
2022/10/17 01:08:23;;;;;;;2.08;0.80;;;;;;;;;;10485920;28;20044;-80
2022/10/17 01:13:31;;;;;;;0.93;0.65;;;;;;;;;;10487231;28;20051;-80
2022/10/17 01:18:47;;;;;;;0.80;0.60;;;;;;;;;;10488717;28;20041;-80
2022/10/17 01:24:20;;;;;;;4.97;0.80;;;;;;;;;;10487437;28;20068;-80
2022/10/17 01:29:36;;;;;;;2.90;0.60;;;;;;;;;;10473533;28;20044;-79
2022/10/17 01:34:48;;;;;;;1.08;0.75;;;;;;;;;;10473411;28;20044;-78
2022/10/17 01:39:54;;;;;;;1.23;0.80;;;;;;;;;;10481883;28;20047;-78
2022/10/17 01:45:02;;;;;;;1.00;0.80;;;;;;;;;;10497321;28;20033;-80
2022/10/17 01:50:12;;;;;;;0.60;0.60;;;;;;;;;;10481586;28;20535;-79
2022/10/17 01:55:21;;;;;;;1.05;0.70;;;;;;;;;;10486052;28;20057;-76
2022/10/17 02:00:27;;;;;;;1.35;1.00;;;;;;;;;;10488065;28;20048;-81
2022/10/17 02:05:34;;;;;;;;;;;;;;;;;;10503848;28;20045;-80
2022/10/17 02:10:42;;;;;;;2.08;0.80;;;;;;;;;;10484246;28;19931;-83
2022/10/17 02:15:59;;;;;;;0.77;0.63;;;;;;;;;;10484383;28;20037;-79
2022/10/17 02:21:09;;;;;;;0.82;0.82;;;;;;;;;;10485510;28;20035;-78
2022/10/17 02:26:21;;;;;;;3.40;0.80;;;;;;;;;;10485203;28;20049;-79
2022/10/17 02:31:30;;;;;;;1.77;1.02;;;;;;;;;;10486235;28;20037;-78
2022/10/17 02:36:39;;;;;;;3.47;1.23;;;;;;;;;;10483344;28;20303;-79
2022/10/17 02:41:44;;;;;;;1.20;1.00;;;;;;;;;;10475944;28;20037;-77
2022/10/17 02:46:55;;;;;;;1.23;0.90;;;;;;;;;;10482354;28;20090;-78
2022/10/17 02:52:05;;;;;;;1.23;0.93;;;;;;;;;;10482794;28;20090;-78
2022/10/17 02:57:14;;;;;;;1.35;0.95;;;;;;;;;;10481586;28;20060;-83
2022/10/17 03:02:18;;;;;;;1.27;0.88;;;;;;;;;;10498209;28;20836;-78
2022/10/17 03:07:23;;;;;;;0.60;0.60;;;;;;;;;;10485068;28;20037;-80
2022/10/17 03:12:26;;;;;;;2.53;0.80;;;;;;;;;;10485065;28;20039;-80
2022/10/17 03:17:30;;;;;;;1.58;0.77;;;;;;;;;;10485017;28;20044;-77
2022/10/17 03:22:35;;;;;;;1.98;1.00;;;;;;;;;;10485573;28;20099;-79
2022/10/17 03:27:40;;;;;;;1.30;0.70;;;;;;;;;;10477265;28;20052;-79
2022/10/17 03:32:44;;;;;;;2.10;0.90;;;;;;;;;;10501528;28;20056;-79
2022/10/17 03:37:49;;;;;;;1.00;0.90;;;;;;;;;;10493415;28;20059;-79
2022/10/17 03:42:54;;;;;;;2.22;0.70;;;;;;;;;;10484484;28;20040;-79
2022/10/17 03:47:59;;;;;;;0.82;0.75;;;;;;;;;;10486277;28;20037;-79
2022/10/17 03:53:03;;;;;;;1.52;0.70;;;;;;;;;;10482027;28;20067;-78
2022/10/17 03:58:07;;;;;;;1.30;0.77;;;;;;;;;;10498413;28;20033;-78
2022/10/17 04:03:11;;;;;;;1.58;0.65;;;;;;;;;;10498698;28;20098;-82
2022/10/17 04:08:17;;;;;;;0.88;0.77;;;;;;;;;;10483249;28;20055;-82
2022/10/17 04:13:41;;;;;;;1.27;0.93;;;;;;;;;;10485032;28;20496;-79
2022/10/17 04:18:45;;;;;;;1.15;1.05;;;;;;;;;;10484273;28;20056;-81
2022/10/17 04:23:53;;;;;;;3.05;1.15;;;;;;;;;;10487635;28;20074;-80
2022/10/17 04:29:10;;;;;;;0.73;0.73;;;;;;;;;;10483925;28;20120;-81
2022/10/17 04:34:16;;;;;;;3.20;0.87;;;;;;;;;;10484493;28;20040;-81
2022/10/17 04:39:21;;;;;;;0.82;0.80;;;;;;;;;;10486167;28;20684;-81
2022/10/17 04:44:24;;;;;;;1.50;0.80;;;;;;;;;;10483146;28;20568;-79
2022/10/17 04:49:28;;;;;;;0.98;0.82;;;;;;;;;;10483697;28;20051;-79
2022/10/17 04:54:40;;;;;;;3.15;1.08;;;;;;;;;;10477208;28;20040;-80
2022/10/17 04:59:45;;;;;;;2.22;1.00;;;;;;;;;;10484313;28;20047;-79
2022/10/17 05:05:24;;;;;;;1.23;0.98;;;;;;;;;;10484008;28;20036;-81
2022/10/17 05:10:31;;;;;;;2.08;1.15;;;;;;;;;;10485295;28;20068;-81
2022/10/17 05:15:35;;;;;;;0.85;0.75;;;;;;;;;;10501083;28;20051;-81
2022/10/17 05:20:38;;;;;;;1.80;1.00;;;;;;;;;;10500417;28;20045;-79
2022/10/17 05:25:43;;;;;;;3.55;0.90;;;;;;;;;;10476613;28;20190;-80
2022/10/17 05:30:47;;;;;;;1.23;0.95;;;;;;;;;;10488428;28;20036;-80
2022/10/17 05:35:51;;;;;;;1.48;0.98;;;;;;;;;;10490523;28;20040;-80
2022/10/17 05:40:59;;;;;;;2.38;0.80;;;;;;;;;;10492726;28;20593;-80
2022/10/17 05:46:06;;;;;;;3.17;1.05;;;;;;;;;;10491452;28;20044;-79
2022/10/17 05:51:10;;;;;;;1.83;1.13;;;;;;;;;;10488778;28;20040;-80
2022/10/17 05:56:19;;;;;;;2.00;0.98;;;;;;;;;;10489556;28;20048;-80
2022/10/17 06:01:24;;;;;;;1.10;0.93;;;;;;;;;;10484058;28;20036;-79
2022/10/17 06:06:28;;;;;;;2.78;1.15;;;;;;;;;;10506418;28;20053;-79
2022/10/17 06:11:33;;;;;;;1.38;1.00;;;;;;;;;;10491769;28;20067;-79
2022/10/17 06:16:37;;;;;;;1.75;1.00;;;;;;;;;;10491037;28;20507;-86
2022/10/17 06:21:40;;;;;;;2.05;0.95;;;;;;;;;;10489444;28;20051;-80
2022/10/17 06:26:58;;;;;;;4.15;1.05;;;;;;;;;;10491051;28;20047;-79
2022/10/17 06:32:02;;;;;;;0.83;0.80;;;;;;;;;;10490166;28;20037;-79
2022/10/17 06:37:07;;;;;;;3.67;0.88;;;;;;;;;;10489715;28;20056;-79
2022/10/17 06:42:13;;;;;;;0.93;0.77;;;;;;;;;;10506149;28;20037;-80
2022/10/17 06:47:23;;;;;;;1.70;0.82;;;;;;;;;;10487622;28;20044;-80
2022/10/17 06:52:32;;;;;;;2.25;0.90;;;;;;;;;;10497362;28;20560;-78
2022/10/17 06:58:00;;;;;;;1.30;1.10;;;;;;;;;;10482555;28;20500;-79
2022/10/17 07:03:25;;;;;;;2.13;1.10;;;;;;;;;;10488487;28;20033;-78
2022/10/17 07:08:28;;;;;;;1.73;0.93;;;;;;;;;;10506274;28;20100;-80
2022/10/17 07:13:36;;;;;;;;;;;;;;;;;;10489899;28;20096;-80
2022/10/17 07:18:41;;;;;;;1.00;0.93;;;;;;;;;;10481211;28;19925;-82
2022/10/17 07:23:45;;;;;;;3.20;1.30;;;;;;;;;;10489433;28;20123;-87
2022/10/17 07:28:55;;;;;;;2.50;1.15;;;;;;;;;;10504972;28;20535;-78
2022/10/17 07:34:12;;;;;;;1.23;0.95;;;;;;;;;;10479182;28;20664;-79
2022/10/17 07:39:15;;;;;;;2.42;0.75;;;;;;;;;;10484306;28;20046;-80
2022/10/17 07:44:22;;;;;;;0.77;0.77;;;;;;;;;;10485293;28;20128;-87
2022/10/17 07:49:27;;;;;;;1.25;0.90;;;;;;;;;;10488024;28;20543;-80
2022/10/17 07:54:30;;;;;;;5.97;1.50;;;;;;;;;;10487646;28;20041;-82
2022/10/17 07:59:36;;;;;;;1.02;1.00;;;;;;;;;;10479008;28;20029;-79
2022/10/17 08:04:40;;;;;;;2.88;1.27;;;;;;;;;;10486658;28;20040;-80
2022/10/17 08:09:43;;;;;;;2.35;1.30;;;;;;;;;;10486740;28;20044;-82
2022/10/17 08:14:48;;;;;;;1.50;0.85;;;;;;;;;;10484232;28;20545;-79
2022/10/17 08:19:51;;;;;;;3.55;0.88;;;;;;;;;;10500393;28;20052;-81
2022/10/17 08:24:54;;;;;;;1.35;0.90;;;;;;;;;;10482414;28;20595;-81
2022/10/17 08:29:59;;;;;;;1.50;0.70;;;;;;;;;;10482628;28;20041;-79
2022/10/17 08:35:02;;;;;;;4.82;1.45;;;;;;;;;;10483208;28;20043;-79
2022/10/17 08:40:07;;;;;;;4.43;1.10;;;;;;;;;;10498537;28;20044;-81
2022/10/17 08:45:20;;;;;;;1.67;1.08;;;;;;;;;;10483058;28;20121;-80
2022/10/17 08:50:29;;;;;;;2.00;0.95;;;;;;;;;;10482323;28;20047;-79
2022/10/17 08:55:38;;;;;;;2.33;1.00;;;;;;;;;;10483621;28;20481;-79
2022/10/17 09:00:49;;;;;;;1.33;0.80;;;;;;;;;;10483329;28;20051;-80
2022/10/17 09:05:56;;;;;;;1.42;0.90;;;;;;;;;;10491463;28;20411;-84
2022/10/17 09:11:03;;;;;;;1.20;0.95;;;;;;;;;;10491872;28;20048;-79
2022/10/17 09:16:29;;;;;;;1.90;1.05;;;;;;;;;;10492095;28;20756;-81
2022/10/17 09:21:41;;;;;;;1.20;0.80;;;;;;;;;;10492186;28;20128;-82
2022/10/17 09:26:46;;;;;;;1.20;0.70;;;;;;;;;;10490417;28;20105;-83
2022/10/17 09:31:58;;;;;;;0.80;0.70;;;;;;;;;;10493240;28;20131;-81
2022/10/17 09:37:02;;;;;;;3.30;0.77;;;;;;;;;;10489453;28;20048;-80
2022/10/17 09:42:06;;;;;;;2.83;0.90;;;;;;;;;;10485256;28;20048;-78
2022/10/17 09:47:20;;;;;;;2.05;0.90;;;;;;;;;;10507468;28;20045;-78
2022/10/17 09:52:29;;;;;;;2.00;0.73;;;;;;;;;;10506134;28;20036;-78
2022/10/17 09:57:53;;;;;;;1.30;0.65;;;;;;;;;;10487846;28;20041;-82
2022/10/17 10:03:15;;;;;;;1.50;0.75;;;;;;;;;;10499171;28;20037;-81
2022/10/17 10:08:28;;;;;;;3.30;1.00;;;;;;;;;;10486686;28;20055;-80
2022/10/17 10:13:32;;;;;;;1.98;0.88;;;;;;;;;;10483707;28;20045;-82
2022/10/17 10:18:37;;;;;;;3.10;0.93;;;;;;;;;;10485925;28;20044;-81
2022/10/17 10:23:41;;;;;;;1.98;1.08;;;;;;;;;;10486622;28;20058;-80
2022/10/17 10:28:53;;;;;;;1.52;0.82;;;;;;;;;;10490343;28;20075;-80
2022/10/17 10:34:00;;;;;;;1.25;0.82;;;;;;;;;;10483793;28;20048;-80
2022/10/17 10:39:25;;;;;;;1.98;0.90;;;;;;;;;;10491570;28;20044;-80
2022/10/17 10:44:32;;;;;;;2.23;0.87;;;;;;;;;;10487931;28;20043;-80
2022/10/17 10:49:39;;;;;;;1.00;0.77;;;;;;;;;;10480537;28;20537;-79
2022/10/17 10:54:48;;;;;;;2.25;1.20;;;;;;;;;;10488585;28;20048;-80
2022/10/17 10:59:58;;;;;;;2.28;0.93;;;;;;;;;;10488740;28;20055;-79
2022/10/17 11:05:11;;;;;;;1.65;1.08;;;;;;;;;;10487165;28;20058;-80
2022/10/17 11:10:18;;;;;;;7.38;1.20;;;;;;;;;;10487286;28;20431;-79
2022/10/17 11:15:26;;;;;;;2.55;1.10;;;;;;;;;;10487821;28;20036;-79
2022/10/17 11:20:38;;;;;;;1.90;1.00;;;;;;;;;;10488061;28;20582;-80
2022/10/17 11:25:41;;;;;;;1.85;1.00;;;;;;;;;;10485195;28;20044;-79
2022/10/17 11:30:50;;;;;;;2.92;1.10;;;;;;;;;;10488136;28;20040;-80
2022/10/17 11:35:59;;;;;;;3.63;1.48;;;;;;;;;;10485828;28;20052;-80
2022/10/17 11:41:04;;;;;;;2.13;1.20;;;;;;;;;;10486694;28;20067;-80
2022/10/17 11:46:15;;;;;;;3.47;1.20;;;;;;;;;;10485511;28;20049;-79
2022/10/17 11:51:20;;;;;;;3.30;1.60;;;;;;;;;;10485867;28;20500;-79
2022/10/17 11:56:50;;;;;;;2.27;1.20;;;;;;;;;;10478244;28;20051;-80
2022/10/17 12:01:57;;;;;;;6.15;1.40;;;;;;;;;;10486879;28;20045;-80
2022/10/17 12:07:13;;;;;;;2.83;1.38;;;;;;;;;;10483034;28;20123;-80
2022/10/17 12:12:26;;;;;;;4.07;1.65;;;;;;;;;;10483797;28;20041;-79
2022/10/17 12:17:34;;;;;;;2.08;1.23;;;;;;;;;;10482477;28;20123;-80
2022/10/17 12:22:47;;;;;;;2.70;1.20;;;;;;;;;;10475715;28;20041;-79
2022/10/17 12:27:51;;;;;;;2.28;1.30;;;;;;;;;;10489074;28;20063;-80
2022/10/17 12:33:05;;;;;;;3.42;1.70;;;;;;;;;;10485846;28;20044;-80
2022/10/17 12:38:27;;;;;;;2.40;1.50;;;;;;;;;;10485999;28;20041;-80
2022/10/17 12:43:47;;;;;;;3.38;1.40;;;;;;;;;;10480246;28;20040;-80
2022/10/17 12:49:35;;;;;;;1.85;0.90;;;;;;;;;;10490588;28;20040;-79
2022/10/17 12:54:42;;;;;;;2.35;1.05;;;;;;;;;;10459973;28;20298;-79
2022/10/17 12:59:49;;;;;;;2.35;1.15;;;;;;;;;;10483979;28;20512;-78
2022/10/17 13:04:58;;;;;;;3.13;1.00;;;;;;;;;;10480701;28;20503;-79
2022/10/17 13:10:04;;;;;;;2.70;1.33;;;;;;;;;;10483902;28;20403;-79
2022/10/17 13:15:12;;;;;;;1.75;1.08;;;;;;;;;;10481940;28;20112;-79
2022/10/17 13:20:22;;;;;;;2.83;1.10;;;;;;;;;;10483244;28;20049;-78
2022/10/17 13:25:28;;;;;;;3.28;1.10;;;;;;;;;;10480930;28;20751;-78
2022/10/17 13:30:34;;;;;;;;;;;;;;;;;;10482686;28;20053;-79
2022/10/17 13:35:38;;;;;;;3.13;1.00;;;;;;;;;;10515065;28;19927;-78
2022/10/17 13:40:59;;;;;;;4.22;1.23;;;;;;;;;;10522961;28;20040;-79
2022/10/17 13:46:20;;;;;;;4.97;1.60;;;;;;;;;;10516485;28;20040;-78
2022/10/17 13:51:42;;;;;;;5.95;1.70;;;;;;;;;;10520425;28;20044;-78
2022/10/17 13:56:46;;;;;;;5.22;1.45;;;;;;;;;;10530527;28;20040;-79
2022/10/17 14:01:51;;;;;;;3.78;1.23;;;;;;;;;;10519521;28;20050;-81
2022/10/17 14:06:54;;;;;;;3.05;1.15;;;;;;;;;;10525606;28;20500;-78
2022/10/17 14:12:01;;;;;;;2.85;1.20;;;;;;;;;;10531654;28;20055;-78
2022/10/17 14:17:14;;;;;;;2.28;1.02;;;;;;;;;;10530210;28;21124;-78
2022/10/17 14:22:24;;;;;;;5.97;1.73;;;;;;;;;;10529973;28;20066;-79
2022/10/17 14:27:33;;;;;;;2.30;0.90;;;;;;;;;;10516599;28;20059;-79
2022/10/17 14:32:37;;;;;;;4.10;1.30;;;;;;;;;;10524973;28;20050;-78
2022/10/17 14:37:43;;;;;;;2.10;1.00;;;;;;;;;;10531998;28;20571;-78
2022/10/17 14:42:49;;;;;;;1.98;0.70;;;;;;;;;;10531590;28;20040;-78
2022/10/17 14:47:55;;;;;;;2.03;1.13;;;;;;;;;;10531574;28;20149;-78
2022/10/17 14:52:58;;;;;;;;;;;;;;;;;;10533232;28;20051;-78
2022/10/17 14:58:22;;;;;;;3.08;1.50;;;;;;;;;;10527850;28;20315;-79
2022/10/17 15:03:25;;;;;;;3.08;0.88;;;;;;;;;;10522538;28;20040;-80
2022/10/17 15:08:29;;;;;;;1.13;0.60;;;;;;;;;;10527610;28;20040;-79
2022/10/17 15:13:33;;;;;;;2.25;0.95;;;;;;;;;;10533859;28;20774;-79
2022/10/17 15:18:40;;;;;;;4.90;1.00;;;;;;;;;;10530225;28;20290;-79
2022/10/17 15:23:44;;;;;;;3.00;1.15;;;;;;;;;;10533064;28;20393;-79
2022/10/17 15:28:49;;;;;;;3.17;0.90;;;;;;;;;;10531632;28;20045;-78
2022/10/17 15:33:53;;;;;;;2.40;1.00;;;;;;;;;;10532327;28;20179;-79
2022/10/17 15:38:58;;;;;;;3.35;0.57;;;;;;;;;;10530424;28;20040;-78
2022/10/17 15:44:02;;;;;;;1.33;0.70;;;;;;;;;;10530854;28;20412;-78
2022/10/17 15:49:07;;;;;;;1.80;0.80;;;;;;;;;;10529422;28;20044;-78
2022/10/17 15:54:10;;;;;;;1.58;0.50;;;;;;;;;;10529363;28;20044;-78
2022/10/17 15:59:19;;;;;;;3.72;1.10;;;;;;;;;;10527721;28;20042;-79
2022/10/17 16:04:25;;;;;;;3.88;1.05;;;;;;;;;;10522745;28;20040;-78
2022/10/17 16:09:29;;;;;;;2.40;0.85;;;;;;;;;;10521156;28;20448;-77
2022/10/17 16:14:34;;;;;;;3.30;0.68;;;;;;;;;;10522708;28;20050;-78
2022/10/17 16:19:37;;;;;;;4.03;0.97;;;;;;;;;;10516681;28;20082;-79
2022/10/17 16:24:42;;;;;;;1.02;0.60;;;;;;;;;;10522643;28;20043;-79
2022/10/17 16:29:47;;;;;;;2.03;0.60;;;;;;;;;;10521928;28;20036;-78
2022/10/17 16:34:50;;;;;;;1.73;0.45;;;;;;;;;;10517154;28;20055;-77
2022/10/17 16:39:54;;;;;;;0.90;0.60;;;;;;;;;;10520419;28;20052;-79
2022/10/17 16:44:59;;;;;;;5.35;1.02;;;;;;;;;;10524601;28;20474;-79
2022/10/17 16:50:02;;;;;;;3.50;1.33;;;;;;;;;;10522952;28;20047;-78
2022/10/17 16:55:07;;;;;;;1.98;1.02;;;;;;;;;;10520206;28;20052;-79
2022/10/17 17:00:13;;;;;;;3.60;1.17;;;;;;;;;;10521226;28;20039;-81
2022/10/17 17:05:16;;;;;;;3.17;1.20;;;;;;;;;;10521881;28;20054;-78
2022/10/17 17:10:19;;;;;;;3.78;1.30;;;;;;;;;;10520934;28;20643;-77
2022/10/17 17:15:24;;;;;;;1.98;1.40;;;;;;;;;;10519266;28;20048;-79
2022/10/17 17:20:27;;;;;;;2.25;1.10;;;;;;;;;;10519396;28;20043;-78
2022/10/17 17:25:33;;;;;;;5.53;2.15;;;;;;;;;;10525962;28;20071;-80
2022/10/17 17:30:40;;;;;;;2.72;1.00;;;;;;;;;;10518236;28;20420;-77
2022/10/17 17:35:43;;;;;;;1.20;0.80;;;;;;;;;;10507087;28;20078;-82
2022/10/17 17:40:47;;;;;;;3.17;0.90;;;;;;;;;;10527500;28;20040;-79
2022/10/17 17:45:53;;;;;;;4.32;1.00;;;;;;;;;;10540596;28;20093;-77
2022/10/17 17:50:56;;;;;;;2.80;1.25;;;;;;;;;;10524475;28;20048;-78
2022/10/17 17:56:03;;;;;;;3.53;1.50;;;;;;;;;;10524285;28;20039;-79
2022/10/17 18:01:12;;;;;;;6.97;1.92;;;;;;;;;;10526341;28;20047;-78
2022/10/17 18:06:17;;;;;;;6.32;2.15;;;;;;;;;;10515178;28;20407;-80
2022/10/17 18:11:20;;;;;;;2.50;1.40;;;;;;;;;;10525680;28;20515;-78
2022/10/17 18:16:26;;;;;;;5.10;1.40;;;;;;;;;;10522016;28;20431;-78
2022/10/17 18:21:29;;;;;;;4.90;1.40;;;;;;;;;;10516919;28;20043;-79
2022/10/17 18:26:33;;;;;;;2.60;1.02;;;;;;;;;;10522131;28;20036;-82
2022/10/17 18:31:38;;;;;;;3.42;1.63;;;;;;;;;;10526860;28;20044;-78
2022/10/17 18:36:41;;;;;;;5.03;1.50;;;;;;;;;;10535409;28;20040;-78
2022/10/17 18:41:44;;;;;;;2.75;1.58;;;;;;;;;;10530074;28;20407;-77
2022/10/17 18:46:49;;;;;;;5.72;2.08;;;;;;;;;;10533355;28;20516;-79
2022/10/17 18:51:52;;;;;;;4.72;1.80;;;;;;;;;;10534312;28;20052;-79
2022/10/17 18:56:56;;;;;;;3.25;1.33;;;;;;;;;;10528208;28;20051;-77
2022/10/17 19:02:01;;;;;;;5.43;1.52;;;;;;;;;;10545127;28;20040;-78
2022/10/17 19:07:04;;;;;;;3.60;1.63;;;;;;;;;;10534328;28;20040;-79
2022/10/17 19:12:07;;;;;;;3.38;1.35;;;;;;;;;;10542325;28;20044;-80
2022/10/17 19:17:12;;;;;;;3.00;1.42;;;;;;;;;;10523103;28;20055;-79
2022/10/17 19:22:15;;;;;;;2.67;1.42;;;;;;;;;;10522525;28;20040;-81
2022/10/17 19:27:19;;;;;;;3.83;1.55;;;;;;;;;;10530774;28;20108;-80
2022/10/17 19:32:24;;;;;;;2.42;1.40;;;;;;;;;;10534984;28;20036;-78
2022/10/17 19:37:27;;;;;;;3.50;1.30;;;;;;;;;;10531687;28;20458;-78
2022/10/17 19:42:30;;;;;;;3.40;1.17;;;;;;;;;;10532348;28;20071;-79
2022/10/17 19:47:35;;;;;;;4.95;1.48;;;;;;;;;;10525449;28;20063;-79
2022/10/17 19:52:39;;;;;;;7.00;1.73;;;;;;;;;;10524447;28;20048;-78
2022/10/17 19:57:42;;;;;;;3.13;1.48;;;;;;;;;;10520758;28;20047;-78
2022/10/17 20:02:47;;;;;;;3.67;2.00;;;;;;;;;;10523920;28;20050;-78
2022/10/17 20:07:50;;;;;;;5.70;1.42;;;;;;;;;;10528306;28;20131;-78
2022/10/17 20:12:53;;;;;;;3.42;1.58;;;;;;;;;;10529339;28;20070;-78
2022/10/17 20:17:58;;;;;;;2.85;1.52;;;;;;;;;;10519965;28;20040;-79
2022/10/17 20:23:01;;;;;;;2.05;1.30;;;;;;;;;;10525813;28;20053;-78
2022/10/17 20:28:05;;;;;;;3.58;1.30;;;;;;;;;;10525182;28;20048;-79
2022/10/17 20:33:09;;;;;;;5.53;1.30;;;;;;;;;;10524581;28;20040;-77
2022/10/17 20:38:13;;;;;;;4.40;1.35;;;;;;;;;;10524490;28;20419;-78
2022/10/17 20:43:16;;;;;;;2.58;1.05;;;;;;;;;;10525516;28;20040;-78
2022/10/17 20:48:21;;;;;;;2.63;1.35;;;;;;;;;;10511274;28;20567;-78
2022/10/17 20:53:24;;;;;;;2.53;1.63;;;;;;;;;;10525150;28;20048;-78
2022/10/17 20:58:38;;;;;;;5.90;1.85;;;;;;;;;;10514237;28;20044;-77
2022/10/17 21:03:43;;;;;;;5.22;1.90;;;;;;;;;;10520136;28;20043;-78
2022/10/17 21:08:48;;;;;;;;;;;;;;;;;;10521713;28;20047;-78
2022/10/17 21:13:55;;;;;;;3.65;0.85;;;;;;;;;;10521277;28;20325;-79
2022/10/17 21:19:00;;;;;;;2.40;1.13;;;;;;;;;;10523935;28;20212;-78
2022/10/17 21:24:05;;;;;;;2.55;1.15;;;;;;;;;;10524173;28;20470;-78
2022/10/17 21:29:10;;;;;;;4.15;1.08;;;;;;;;;;10538894;28;20507;-78
2022/10/17 21:34:17;;;;;;;2.28;0.85;;;;;;;;;;10523395;28;20040;-78
2022/10/17 21:39:22;;;;;;;6.05;1.27;;;;;;;;;;10522674;28;20048;-78
2022/10/17 21:44:27;;;;;;;4.03;1.60;;;;;;;;;;10523233;28;20508;-79
2022/10/17 21:49:32;;;;;;;2.63;1.30;;;;;;;;;;10525350;28;20048;-79
2022/10/17 21:54:36;;;;;;;3.73;1.33;;;;;;;;;;10515469;28;20051;-79
2022/10/17 21:59:39;;;;;;;5.78;1.50;;;;;;;;;;10524274;28;20051;-78
2022/10/17 22:04:43;;;;;;;7.00;1.63;;;;;;;;;;10523319;28;20058;-78
2022/10/17 22:09:47;;;;;;;5.57;1.55;;;;;;;;;;10539754;28;20089;-78
2022/10/17 22:14:50;;;;;;;5.82;2.15;;;;;;;;;;10530927;28;20101;-78
2022/10/17 22:19:55;;;;;;;4.55;1.65;;;;;;;;;;10531758;28;20044;-78
2022/10/17 22:24:58;;;;;;;3.33;1.60;;;;;;;;;;10528265;28;20050;-78
2022/10/17 22:30:01;;;;;;;4.22;1.80;;;;;;;;;;10529054;28;20661;-78
2022/10/17 22:35:07;;;;;;;4.22;1.30;;;;;;;;;;10528754;28;20044;-78
2022/10/17 22:40:11;;;;;;;3.25;1.73;;;;;;;;;;10527451;28;20116;-78
2022/10/17 22:45:15;;;;;;;4.47;1.77;;;;;;;;;;10528234;28;20044;-79
2022/10/17 22:50:19;;;;;;;2.33;1.38;;;;;;;;;;10529154;28;20040;-80
2022/10/17 22:55:22;;;;;;;6.57;1.73;;;;;;;;;;10528923;28;20066;-80
2022/10/17 23:00:26;;;;;;;6.32;1.70;;;;;;;;;;10528460;28;20056;-80
2022/10/17 23:05:35;;;;;;;3.83;1.55;;;;;;;;;;10544105;28;20040;-80
2022/10/17 23:10:39;;;;;;;4.65;1.20;;;;;;;;;;10520469;28;20097;-79
2022/10/17 23:15:43;;;;;;;3.67;1.20;;;;;;;;;;10528126;28;20058;-79
2022/10/17 23:20:48;;;;;;;2.35;1.17;;;;;;;;;;10527616;28;20094;-78
2022/10/17 23:25:51;;;;;;;4.53;1.20;;;;;;;;;;10527359;28;20070;-79
2022/10/17 23:30:54;;;;;;;6.13;0.85;;;;;;;;;;10526631;28;20108;-79
2022/10/17 23:35:59;;;;;;;5.05;1.00;;;;;;;;;;10525348;28;20067;-79
2022/10/17 23:41:02;;;;;;;2.80;1.10;;;;;;;;;;10527127;28;20101;-78
2022/10/17 23:46:06;;;;;;;3.78;0.88;;;;;;;;;;10526308;28;20040;-78
2022/10/17 23:51:12;;;;;;;5.22;1.25;;;;;;;;;;10527363;28;20078;-79
2022/10/17 23:56:15;;;;;;;2.30;1.05;;;;;;;;;;10527282;28;20770;-79
